sensor_id;sensor_type;location;lat;lon;timestamp;temperature;humidity
16517;DHT22;8371;52.272;9.746;2023-04-05T00:01:32;1.40;55.40
16517;DHT22;8371;52.272;9.746;2023-04-05T00:03:59;1.40;55.40
16517;DHT22;8371;52.272;9.746;2023-04-05T00:06:29;1.40;55.30
16517;DHT22;8371;52.272;9.746;2023-04-05T00:08:59;1.40;55.40
16517;DHT22;8371;52.272;9.746;2023-04-05T00:11:25;1.40;55.40
16517;DHT22;8371;52.272;9.746;2023-04-05T00:13:51;1.30;55.30
16517;DHT22;8371;52.272;9.746;2023-04-05T00:16:18;1.30;55.30
16517;DHT22;8371;52.272;9.746;2023-04-05T00:18:45;1.30;55.50
16517;DHT22;8371;52.272;9.746;2023-04-05T00:21:13;1.20;55.50
16517;DHT22;8371;52.272;9.746;2023-04-05T00:23:39;1.20;55.50
16517;DHT22;8371;52.272;9.746;2023-04-05T00:26:06;1.10;55.50
16517;DHT22;8371;52.272;9.746;2023-04-05T00:28:33;1.10;55.50
16517;DHT22;8371;52.272;9.746;2023-04-05T00:30:59;1.10;55.50
16517;DHT22;8371;52.272;9.746;2023-04-05T00:33:25;1.00;55.40
16517;DHT22;8371;52.272;9.746;2023-04-05T00:35:50;1.00;55.50
16517;DHT22;8371;52.272;9.746;2023-04-05T00:38:16;0.90;55.60
16517;DHT22;8371;52.272;9.746;2023-04-05T00:40:42;0.90;55.60
16517;DHT22;8371;52.272;9.746;2023-04-05T00:43:07;0.80;56.30
16517;DHT22;8371;52.272;9.746;2023-04-05T00:45:33;0.80;55.70
16517;DHT22;8371;52.272;9.746;2023-04-05T00:47:59;0.80;55.80
16517;DHT22;8371;52.272;9.746;2023-04-05T00:50:26;0.70;56.40
16517;DHT22;8371;52.272;9.746;2023-04-05T00:52:54;0.70;55.90
16517;DHT22;8371;52.272;9.746;2023-04-05T00:55:20;0.70;55.90
16517;DHT22;8371;52.272;9.746;2023-04-05T00:57:46;0.70;56.00
16517;DHT22;8371;52.272;9.746;2023-04-05T01:00:15;0.60;56.00
16517;DHT22;8371;52.272;9.746;2023-04-05T01:02:50;0.60;56.00
16517;DHT22;8371;52.272;9.746;2023-04-05T01:08:33;0.60;56.20
16517;DHT22;8371;52.272;9.746;2023-04-05T01:11:02;0.50;56.10
16517;DHT22;8371;52.272;9.746;2023-04-05T01:13:29;0.40;56.10
16517;DHT22;8371;52.272;9.746;2023-04-05T01:15:54;0.40;56.20
16517;DHT22;8371;52.272;9.746;2023-04-05T01:18:20;0.40;56.30
16517;DHT22;8371;52.272;9.746;2023-04-05T01:20:56;0.40;56.40
16517;DHT22;8371;52.272;9.746;2023-04-05T01:23:27;0.30;56.30
16517;DHT22;8371;52.272;9.746;2023-04-05T01:29:16;0.30;56.40
16517;DHT22;8371;52.272;9.746;2023-04-05T01:31:56;0.30;56.40
16517;DHT22;8371;52.272;9.746;2023-04-05T01:37:01;0.20;56.30
16517;DHT22;8371;52.272;9.746;2023-04-05T01:39:27;0.10;56.40
16517;DHT22;8371;52.272;9.746;2023-04-05T01:41:58;0.10;56.40
16517;DHT22;8371;52.272;9.746;2023-04-05T01:44:24;0.10;56.50
16517;DHT22;8371;52.272;9.746;2023-04-05T01:46:50;0.10;56.50
16517;DHT22;8371;52.272;9.746;2023-04-05T01:49:15;0.10;56.70
16517;DHT22;8371;52.272;9.746;2023-04-05T01:51:41;0.20;56.70
16517;DHT22;8371;52.272;9.746;2023-04-05T01:54:08;0.10;56.70
16517;DHT22;8371;52.272;9.746;2023-04-05T01:56:33;0.10;56.80
16517;DHT22;8371;52.272;9.746;2023-04-05T01:58:59;0.00;56.80
16517;DHT22;8371;52.272;9.746;2023-04-05T02:01:25;0.00;56.80
16517;DHT22;8371;52.272;9.746;2023-04-05T02:03:51;0.00;56.80
16517;DHT22;8371;52.272;9.746;2023-04-05T02:06:16;0.00;56.80
16517;DHT22;8371;52.272;9.746;2023-04-05T02:08:42;0.00;56.90
16517;DHT22;8371;52.272;9.746;2023-04-05T02:11:08;0.00;56.90
16517;DHT22;8371;52.272;9.746;2023-04-05T02:13:33;0.00;56.90
16517;DHT22;8371;52.272;9.746;2023-04-05T02:15:59;0.00;57.00
16517;DHT22;8371;52.272;9.746;2023-04-05T02:18:25;-0.10;57.00
16517;DHT22;8371;52.272;9.746;2023-04-05T02:20:52;0.00;57.00
16517;DHT22;8371;52.272;9.746;2023-04-05T02:23:18;0.00;57.10
16517;DHT22;8371;52.272;9.746;2023-04-05T02:25:44;0.00;57.20
16517;DHT22;8371;52.272;9.746;2023-04-05T02:28:10;0.00;57.20
16517;DHT22;8371;52.272;9.746;2023-04-05T02:30:35;0.00;57.30
16517;DHT22;8371;52.272;9.746;2023-04-05T02:33:01;0.00;57.30
16517;DHT22;8371;52.272;9.746;2023-04-05T02:35:27;0.00;57.30
16517;DHT22;8371;52.272;9.746;2023-04-05T02:37:53;-0.10;57.30
16517;DHT22;8371;52.272;9.746;2023-04-05T02:40:18;-0.10;57.30
16517;DHT22;8371;52.272;9.746;2023-04-05T02:42:45;-0.10;57.30
16517;DHT22;8371;52.272;9.746;2023-04-05T02:45:11;-0.10;57.20
16517;DHT22;8371;52.272;9.746;2023-04-05T02:47:37;-0.10;57.20
16517;DHT22;8371;52.272;9.746;2023-04-05T02:50:03;-0.10;57.30
16517;DHT22;8371;52.272;9.746;2023-04-05T02:52:30;-0.20;57.30
16517;DHT22;8371;52.272;9.746;2023-04-05T02:54:56;-0.20;57.30
16517;DHT22;8371;52.272;9.746;2023-04-05T02:57:22;-0.20;57.30
16517;DHT22;8371;52.272;9.746;2023-04-05T02:59:47;-0.20;57.40
16517;DHT22;8371;52.272;9.746;2023-04-05T03:02:13;-0.20;57.40
16517;DHT22;8371;52.272;9.746;2023-04-05T03:04:39;-0.30;57.40
16517;DHT22;8371;52.272;9.746;2023-04-05T03:07:05;-0.30;57.40
16517;DHT22;8371;52.272;9.746;2023-04-05T03:09:32;-0.30;57.40
16517;DHT22;8371;52.272;9.746;2023-04-05T03:12:02;-0.30;57.40
16517;DHT22;8371;52.272;9.746;2023-04-05T03:14:32;-0.40;57.40
16517;DHT22;8371;52.272;9.746;2023-04-05T03:16:58;-0.40;57.50
16517;DHT22;8371;52.272;9.746;2023-04-05T03:19:24;-0.40;57.50
16517;DHT22;8371;52.272;9.746;2023-04-05T03:21:51;-0.40;57.60
16517;DHT22;8371;52.272;9.746;2023-04-05T03:24:17;-0.40;57.70
16517;DHT22;8371;52.272;9.746;2023-04-05T03:26:44;-0.40;57.70
16517;DHT22;8371;52.272;9.746;2023-04-05T03:29:10;-0.40;57.70
16517;DHT22;8371;52.272;9.746;2023-04-05T03:31:36;-0.40;57.70
16517;DHT22;8371;52.272;9.746;2023-04-05T03:34:01;-0.50;58.10
16517;DHT22;8371;52.272;9.746;2023-04-05T03:36:27;-0.50;57.70
16517;DHT22;8371;52.272;9.746;2023-04-05T03:38:55;-0.50;57.80
16517;DHT22;8371;52.272;9.746;2023-04-05T03:41:21;-0.50;57.80
16517;DHT22;8371;52.272;9.746;2023-04-05T03:43:47;-0.50;57.80
16517;DHT22;8371;52.272;9.746;2023-04-05T03:46:13;-0.50;57.90
16517;DHT22;8371;52.272;9.746;2023-04-05T03:48:39;-0.50;57.90
16517;DHT22;8371;52.272;9.746;2023-04-05T03:51:05;-0.50;57.90
16517;DHT22;8371;52.272;9.746;2023-04-05T03:53:31;-0.50;57.90
16517;DHT22;8371;52.272;9.746;2023-04-05T03:55:57;-0.50;57.90
16517;DHT22;8371;52.272;9.746;2023-04-05T03:58:24;-0.60;57.80
16517;DHT22;8371;52.272;9.746;2023-04-05T04:00:50;-0.60;57.80
16517;DHT22;8371;52.272;9.746;2023-04-05T04:03:17;-0.60;57.80
16517;DHT22;8371;52.272;9.746;2023-04-05T04:05:44;-0.60;58.00
16517;DHT22;8371;52.272;9.746;2023-04-05T04:08:09;-0.60;58.00
16517;DHT22;8371;52.272;9.746;2023-04-05T04:10:35;-0.60;58.10
16517;DHT22;8371;52.272;9.746;2023-04-05T04:13:01;-0.60;58.10
16517;DHT22;8371;52.272;9.746;2023-04-05T04:15:27;-0.60;58.10
16517;DHT22;8371;52.272;9.746;2023-04-05T04:17:52;-0.60;58.20
16517;DHT22;8371;52.272;9.746;2023-04-05T04:20:18;-0.70;58.30
16517;DHT22;8371;52.272;9.746;2023-04-05T04:22:44;-0.70;58.20
16517;DHT22;8371;52.272;9.746;2023-04-05T04:25:10;-0.70;58.20
16517;DHT22;8371;52.272;9.746;2023-04-05T04:27:41;-0.70;58.20
16517;DHT22;8371;52.272;9.746;2023-04-05T04:30:10;-0.70;58.20
16517;DHT22;8371;52.272;9.746;2023-04-05T04:32:37;-0.70;58.30
16517;DHT22;8371;52.272;9.746;2023-04-05T04:35:14;-0.70;58.30
16517;DHT22;8371;52.272;9.746;2023-04-05T04:37:50;-0.70;58.30
16517;DHT22;8371;52.272;9.746;2023-04-05T04:40:17;-0.70;58.30
16517;DHT22;8371;52.272;9.746;2023-04-05T04:42:44;-0.70;58.30
16517;DHT22;8371;52.272;9.746;2023-04-05T04:45:13;-0.70;58.50
16517;DHT22;8371;52.272;9.746;2023-04-05T04:47:43;-0.70;58.40
16517;DHT22;8371;52.272;9.746;2023-04-05T04:50:09;-0.60;58.50
16517;DHT22;8371;52.272;9.746;2023-04-05T04:52:37;-0.60;58.50
16517;DHT22;8371;52.272;9.746;2023-04-05T04:55:04;-0.60;58.60
16517;DHT22;8371;52.272;9.746;2023-04-05T04:57:30;-0.60;58.60
16517;DHT22;8371;52.272;9.746;2023-04-05T04:59:55;-0.50;58.70
16517;DHT22;8371;52.272;9.746;2023-04-05T05:02:29;-0.50;58.80
16517;DHT22;8371;52.272;9.746;2023-04-05T05:04:53;-0.40;58.80
16517;DHT22;8371;52.272;9.746;2023-04-05T05:07:19;-0.40;58.80
16517;DHT22;8371;52.272;9.746;2023-04-05T05:09:45;-0.40;58.90
16517;DHT22;8371;52.272;9.746;2023-04-05T05:12:11;-0.30;58.90
16517;DHT22;8371;52.272;9.746;2023-04-05T05:14:36;-0.10;59.00
16517;DHT22;8371;52.272;9.746;2023-04-05T05:17:02;-0.20;59.10
16517;DHT22;8371;52.272;9.746;2023-04-05T05:19:29;-0.20;59.10
16517;DHT22;8371;52.272;9.746;2023-04-05T05:21:56;-0.10;59.10
16517;DHT22;8371;52.272;9.746;2023-04-05T05:24:22;-0.10;59.20
16517;DHT22;8371;52.272;9.746;2023-04-05T05:26:47;0.00;59.30
16517;DHT22;8371;52.272;9.746;2023-04-05T05:29:13;0.00;59.30
16517;DHT22;8371;52.272;9.746;2023-04-05T05:31:39;0.10;59.40
16517;DHT22;8371;52.272;9.746;2023-04-05T05:34:05;0.10;59.40
16517;DHT22;8371;52.272;9.746;2023-04-05T05:36:31;0.20;59.40
16517;DHT22;8371;52.272;9.746;2023-04-05T05:38:57;0.20;59.40
16517;DHT22;8371;52.272;9.746;2023-04-05T05:41:23;0.30;59.70
16517;DHT22;8371;52.272;9.746;2023-04-05T05:43:49;0.30;59.50
16517;DHT22;8371;52.272;9.746;2023-04-05T05:46:15;0.40;59.60
16517;DHT22;8371;52.272;9.746;2023-04-05T05:48:40;0.40;59.60
16517;DHT22;8371;52.272;9.746;2023-04-05T05:51:06;0.50;59.70
16517;DHT22;8371;52.272;9.746;2023-04-05T05:53:35;0.50;59.60
16517;DHT22;8371;52.272;9.746;2023-04-05T05:56:01;0.60;59.80
16517;DHT22;8371;52.272;9.746;2023-04-05T05:58:27;0.60;59.70
16517;DHT22;8371;52.272;9.746;2023-04-05T06:00:53;0.70;59.70
16517;DHT22;8371;52.272;9.746;2023-04-05T06:03:20;0.80;59.80
16517;DHT22;8371;52.272;9.746;2023-04-05T06:05:53;0.90;59.80
16517;DHT22;8371;52.272;9.746;2023-04-05T06:08:19;0.90;59.80
16517;DHT22;8371;52.272;9.746;2023-04-05T06:10:45;1.00;60.00
16517;DHT22;8371;52.272;9.746;2023-04-05T06:13:10;1.10;59.90
16517;DHT22;8371;52.272;9.746;2023-04-05T06:15:36;1.20;60.00
16517;DHT22;8371;52.272;9.746;2023-04-05T06:18:02;1.20;60.00
16517;DHT22;8371;52.272;9.746;2023-04-05T06:20:27;1.30;60.00
16517;DHT22;8371;52.272;9.746;2023-04-05T06:22:53;1.30;67.20
16517;DHT22;8371;52.272;9.746;2023-04-05T06:25:19;1.50;59.90
16517;DHT22;8371;52.272;9.746;2023-04-05T06:27:44;1.50;59.80
16517;DHT22;8371;52.272;9.746;2023-04-05T06:30:11;1.60;59.80
16517;DHT22;8371;52.272;9.746;2023-04-05T06:32:36;1.70;59.80
16517;DHT22;8371;52.272;9.746;2023-04-05T06:35:02;1.70;59.80
16517;DHT22;8371;52.272;9.746;2023-04-05T06:37:29;1.80;59.70
16517;DHT22;8371;52.272;9.746;2023-04-05T06:39:55;1.90;59.70
16517;DHT22;8371;52.272;9.746;2023-04-05T06:42:21;2.00;59.90
16517;DHT22;8371;52.272;9.746;2023-04-05T06:44:46;2.10;60.00
16517;DHT22;8371;52.272;9.746;2023-04-05T06:47:12;2.10;60.00
16517;DHT22;8371;52.272;9.746;2023-04-05T06:49:38;2.20;60.00
16517;DHT22;8371;52.272;9.746;2023-04-05T06:52:04;2.40;60.20
16517;DHT22;8371;52.272;9.746;2023-04-05T06:54:33;2.50;60.30
16517;DHT22;8371;52.272;9.746;2023-04-05T06:56:59;2.60;60.30
16517;DHT22;8371;52.272;9.746;2023-04-05T06:59:27;2.70;60.20
16517;DHT22;8371;52.272;9.746;2023-04-05T07:01:54;2.90;60.30
16517;DHT22;8371;52.272;9.746;2023-04-05T07:04:19;3.00;60.20
16517;DHT22;8371;52.272;9.746;2023-04-05T07:06:45;3.10;60.20
16517;DHT22;8371;52.272;9.746;2023-04-05T07:09:11;3.40;60.30
16517;DHT22;8371;52.272;9.746;2023-04-05T07:11:36;3.40;60.20
16517;DHT22;8371;52.272;9.746;2023-04-05T07:14:04;3.50;61.00
16517;DHT22;8371;52.272;9.746;2023-04-05T07:16:30;3.70;60.30
16517;DHT22;8371;52.272;9.746;2023-04-05T07:18:56;3.80;60.10
16517;DHT22;8371;52.272;9.746;2023-04-05T07:21:22;4.00;60.10
16517;DHT22;8371;52.272;9.746;2023-04-05T07:23:48;4.10;60.00
16517;DHT22;8371;52.272;9.746;2023-04-05T07:26:13;4.20;60.00
16517;DHT22;8371;52.272;9.746;2023-04-05T07:28:39;4.30;60.00
16517;DHT22;8371;52.272;9.746;2023-04-05T07:31:05;4.40;60.00
16517;DHT22;8371;52.272;9.746;2023-04-05T07:33:32;4.60;60.00
16517;DHT22;8371;52.272;9.746;2023-04-05T07:35:58;4.70;60.00
16517;DHT22;8371;52.272;9.746;2023-04-05T07:38:25;4.90;60.30
16517;DHT22;8371;52.272;9.746;2023-04-05T07:40:51;5.00;60.30
16517;DHT22;8371;52.272;9.746;2023-04-05T07:43:17;5.20;60.20
16517;DHT22;8371;52.272;9.746;2023-04-05T07:45:43;5.50;59.90
16517;DHT22;8371;52.272;9.746;2023-04-05T07:48:09;5.60;59.60
16517;DHT22;8371;52.272;9.746;2023-04-05T07:50:35;5.80;59.80
16517;DHT22;8371;52.272;9.746;2023-04-05T07:53:03;6.00;59.80
16517;DHT22;8371;52.272;9.746;2023-04-05T07:55:29;6.30;60.10
16517;DHT22;8371;52.272;9.746;2023-04-05T07:57:54;6.50;60.70
16517;DHT22;8371;52.272;9.746;2023-04-05T08:00:20;6.80;60.20
16517;DHT22;8371;52.272;9.746;2023-04-05T08:02:46;7.10;60.00
16517;DHT22;8371;52.272;9.746;2023-04-05T08:05:12;7.30;59.70
16517;DHT22;8371;52.272;9.746;2023-04-05T08:07:38;7.50;59.50
16517;DHT22;8371;52.272;9.746;2023-04-05T08:10:04;7.80;59.40
16517;DHT22;8371;52.272;9.746;2023-04-05T08:12:31;8.10;59.40
16517;DHT22;8371;52.272;9.746;2023-04-05T08:14:57;8.30;59.30
16517;DHT22;8371;52.272;9.746;2023-04-05T08:17:22;8.60;59.20
16517;DHT22;8371;52.272;9.746;2023-04-05T08:19:50;8.90;59.00
16517;DHT22;8371;52.272;9.746;2023-04-05T08:22:17;9.20;58.90
16517;DHT22;8371;52.272;9.746;2023-04-05T08:24:43;9.50;58.60
16517;DHT22;8371;52.272;9.746;2023-04-05T08:27:09;9.80;58.30
16517;DHT22;8371;52.272;9.746;2023-04-05T08:29:34;10.10;58.00
16517;DHT22;8371;52.272;9.746;2023-04-05T08:32:00;10.40;57.70
16517;DHT22;8371;52.272;9.746;2023-04-05T08:34:26;10.70;57.40
16517;DHT22;8371;52.272;9.746;2023-04-05T08:36:51;11.00;57.20
16517;DHT22;8371;52.272;9.746;2023-04-05T08:39:17;11.30;57.00
16517;DHT22;8371;52.272;9.746;2023-04-05T08:41:47;11.50;56.70
16517;DHT22;8371;52.272;9.746;2023-04-05T08:44:12;11.80;56.40
16517;DHT22;8371;52.272;9.746;2023-04-05T08:46:41;12.10;56.30
16517;DHT22;8371;52.272;9.746;2023-04-05T08:49:08;12.20;55.80
16517;DHT22;8371;52.272;9.746;2023-04-05T08:51:36;12.60;55.60
16517;DHT22;8371;52.272;9.746;2023-04-05T08:54:05;12.80;55.20
16517;DHT22;8371;52.272;9.746;2023-04-05T08:56:32;13.00;54.60
16517;DHT22;8371;52.272;9.746;2023-04-05T08:59:04;13.20;54.00
16517;DHT22;8371;52.272;9.746;2023-04-05T09:01:31;13.40;52.60
16517;DHT22;8371;52.272;9.746;2023-04-05T09:04:06;13.50;53.10
16517;DHT22;8371;52.272;9.746;2023-04-05T09:06:52;13.50;52.80
16517;DHT22;8371;52.272;9.746;2023-04-05T09:09:20;13.70;52.60
16517;DHT22;8371;52.272;9.746;2023-04-05T09:11:47;13.80;52.50
16517;DHT22;8371;52.272;9.746;2023-04-05T09:14:15;13.90;53.20
16517;DHT22;8371;52.272;9.746;2023-04-05T09:16:42;14.00;52.50
16517;DHT22;8371;52.272;9.746;2023-04-05T09:19:08;14.10;52.20
16517;DHT22;8371;52.272;9.746;2023-04-05T09:24:31;14.50;51.70
16517;DHT22;8371;52.272;9.746;2023-04-05T09:27:05;14.60;51.60
16517;DHT22;8371;52.272;9.746;2023-04-05T09:29:31;14.80;51.40
16517;DHT22;8371;52.272;9.746;2023-04-05T09:31:59;14.90;51.10
16517;DHT22;8371;52.272;9.746;2023-04-05T09:34:26;15.10;50.90
16517;DHT22;8371;52.272;9.746;2023-04-05T09:36:51;15.30;50.70
16517;DHT22;8371;52.272;9.746;2023-04-05T09:39:17;15.50;50.40
16517;DHT22;8371;52.272;9.746;2023-04-05T09:42:03;15.60;50.30
16517;DHT22;8371;52.272;9.746;2023-04-05T09:44:14;15.80;50.10
16517;DHT22;8371;52.272;9.746;2023-04-05T09:46:40;15.90;50.10
16517;DHT22;8371;52.272;9.746;2023-04-05T09:49:06;16.10;50.00
16517;DHT22;8371;52.272;9.746;2023-04-05T09:51:35;16.30;50.30
16517;DHT22;8371;52.272;9.746;2023-04-05T09:54:04;16.60;49.50
16517;DHT22;8371;52.272;9.746;2023-04-05T09:56:33;16.70;48.90
16517;DHT22;8371;52.272;9.746;2023-04-05T10:01:36;17.20;48.50
16517;DHT22;8371;52.272;9.746;2023-04-05T10:04:02;17.30;48.00
16517;DHT22;8371;52.272;9.746;2023-04-05T10:06:38;17.50;47.60
16517;DHT22;8371;52.272;9.746;2023-04-05T10:09:05;17.70;47.50
16517;DHT22;8371;52.272;9.746;2023-04-05T10:11:32;17.80;46.90
16517;DHT22;8371;52.272;9.746;2023-04-05T10:14:03;17.90;47.00
16517;DHT22;8371;52.272;9.746;2023-04-05T10:16:44;18.00;46.40
16517;DHT22;8371;52.272;9.746;2023-04-05T10:19:15;18.10;46.30
16517;DHT22;8371;52.272;9.746;2023-04-05T10:21:42;18.10;44.20
16517;DHT22;8371;52.272;9.746;2023-04-05T10:27:04;18.00;43.50
16517;DHT22;8371;52.272;9.746;2023-04-05T10:29:37;18.00;43.70
16517;DHT22;8371;52.272;9.746;2023-04-05T10:32:13;17.90;43.90
16517;DHT22;8371;52.272;9.746;2023-04-05T10:34:47;17.90;43.90
16517;DHT22;8371;52.272;9.746;2023-04-05T10:37:19;17.90;43.00
16517;DHT22;8371;52.272;9.746;2023-04-05T10:39:44;18.00;43.70
16517;DHT22;8371;52.272;9.746;2023-04-05T10:42:26;18.10;43.90
16517;DHT22;8371;52.272;9.746;2023-04-05T10:44:54;18.10;44.20
16517;DHT22;8371;52.272;9.746;2023-04-05T10:47:21;18.20;44.80
16517;DHT22;8371;52.272;9.746;2023-04-05T10:49:53;18.30;43.80
16517;DHT22;8371;52.272;9.746;2023-04-05T10:52:21;18.30;43.80
16517;DHT22;8371;52.272;9.746;2023-04-05T10:54:48;18.40;44.20
16517;DHT22;8371;52.272;9.746;2023-04-05T10:57:14;18.50;44.00
16517;DHT22;8371;52.272;9.746;2023-04-05T10:59:44;18.60;43.90
16517;DHT22;8371;52.272;9.746;2023-04-05T11:02:11;18.70;42.60
16517;DHT22;8371;52.272;9.746;2023-04-05T11:04:38;18.80;43.30
16517;DHT22;8371;52.272;9.746;2023-04-05T11:07:16;18.90;42.50
16517;DHT22;8371;52.272;9.746;2023-04-05T11:10:00;19.00;42.40
16517;DHT22;8371;52.272;9.746;2023-04-05T11:20:48;19.20;40.80
16517;DHT22;8371;52.272;9.746;2023-04-05T11:23:19;19.20;39.10
16517;DHT22;8371;52.272;9.746;2023-04-05T11:26:01;19.20;39.00
16517;DHT22;8371;52.272;9.746;2023-04-05T11:28:36;19.10;39.30
16517;DHT22;8371;52.272;9.746;2023-04-05T11:31:14;18.90;38.40
16517;DHT22;8371;52.272;9.746;2023-04-05T11:36:11;18.60;37.00
16517;DHT22;8371;52.272;9.746;2023-04-05T11:38:43;18.30;36.80
16517;DHT22;8371;52.272;9.746;2023-04-05T11:41:12;18.00;36.80
16517;DHT22;8371;52.272;9.746;2023-04-05T11:43:40;17.80;38.20
16517;DHT22;8371;52.272;9.746;2023-04-05T11:46:07;17.50;38.70
16517;DHT22;8371;52.272;9.746;2023-04-05T11:48:32;17.40;39.30
16517;DHT22;8371;52.272;9.746;2023-04-05T11:50:59;17.30;38.20
16517;DHT22;8371;52.272;9.746;2023-04-05T11:53:25;17.30;38.60
16517;DHT22;8371;52.272;9.746;2023-04-05T11:55:51;17.20;39.70
16517;DHT22;8371;52.272;9.746;2023-04-05T11:58:18;17.30;40.10
16517;DHT22;8371;52.272;9.746;2023-04-05T12:01:01;17.30;40.20
16517;DHT22;8371;52.272;9.746;2023-04-05T12:03:27;17.30;39.80
16517;DHT22;8371;52.272;9.746;2023-04-05T12:05:55;17.40;40.30
16517;DHT22;8371;52.272;9.746;2023-04-05T12:08:21;17.50;40.60
16517;DHT22;8371;52.272;9.746;2023-04-05T12:10:57;17.60;40.90
16517;DHT22;8371;52.272;9.746;2023-04-05T12:13:27;17.70;41.10
16517;DHT22;8371;52.272;9.746;2023-04-05T12:15:56;17.90;40.90
16517;DHT22;8371;52.272;9.746;2023-04-05T12:18:24;18.10;40.90
16517;DHT22;8371;52.272;9.746;2023-04-05T12:20:50;18.30;41.10
16517;DHT22;8371;52.272;9.746;2023-04-05T12:23:16;18.50;40.90
16517;DHT22;8371;52.272;9.746;2023-04-05T12:25:47;18.80;40.50
16517;DHT22;8371;52.272;9.746;2023-04-05T12:28:13;18.90;39.70
16517;DHT22;8371;52.272;9.746;2023-04-05T12:30:50;19.00;39.40
16517;DHT22;8371;52.272;9.746;2023-04-05T12:33:26;19.10;39.30
16517;DHT22;8371;52.272;9.746;2023-04-05T12:35:53;19.00;38.70
16517;DHT22;8371;52.272;9.746;2023-04-05T12:38:19;19.00;38.40
16517;DHT22;8371;52.272;9.746;2023-04-05T12:40:44;18.90;38.60
16517;DHT22;8371;52.272;9.746;2023-04-05T12:43:10;18.90;38.40
16517;DHT22;8371;52.272;9.746;2023-04-05T12:45:36;18.70;37.90
16517;DHT22;8371;52.272;9.746;2023-04-05T12:48:11;18.50;36.50
16517;DHT22;8371;52.272;9.746;2023-04-05T12:50:46;18.30;36.50
16517;DHT22;8371;52.272;9.746;2023-04-05T12:53:15;18.00;37.20
16517;DHT22;8371;52.272;9.746;2023-04-05T12:55:53;17.70;37.50
16517;DHT22;8371;52.272;9.746;2023-04-05T12:58:20;17.60;37.70
16517;DHT22;8371;52.272;9.746;2023-04-05T13:00:47;17.50;38.20
16517;DHT22;8371;52.272;9.746;2023-04-05T13:03:18;17.50;38.60
16517;DHT22;8371;52.272;9.746;2023-04-05T13:05:46;17.50;38.40
16517;DHT22;8371;52.272;9.746;2023-04-05T13:08:12;17.50;37.60
16517;DHT22;8371;52.272;9.746;2023-04-05T13:10:38;17.50;38.20
16517;DHT22;8371;52.272;9.746;2023-04-05T13:13:04;17.60;38.20
16517;DHT22;8371;52.272;9.746;2023-04-05T13:15:30;17.60;38.40
16517;DHT22;8371;52.272;9.746;2023-04-05T13:17:56;17.70;38.60
16517;DHT22;8371;52.272;9.746;2023-04-05T13:20:22;17.70;38.80
16517;DHT22;8371;52.272;9.746;2023-04-05T13:22:48;17.90;38.70
16517;DHT22;8371;52.272;9.746;2023-04-05T13:25:13;18.00;38.80
16517;DHT22;8371;52.272;9.746;2023-04-05T13:27:39;18.10;39.50
16517;DHT22;8371;52.272;9.746;2023-04-05T13:30:05;18.30;38.50
16517;DHT22;8371;52.272;9.746;2023-04-05T13:32:32;18.40;38.80
16517;DHT22;8371;52.272;9.746;2023-04-05T13:34:58;18.60;38.80
16517;DHT22;8371;52.272;9.746;2023-04-05T13:37:24;18.80;38.40
16517;DHT22;8371;52.272;9.746;2023-04-05T13:39:49;19.00;38.10
16517;DHT22;8371;52.272;9.746;2023-04-05T13:42:15;19.10;38.00
16517;DHT22;8371;52.272;9.746;2023-04-05T13:44:41;19.20;37.40
16517;DHT22;8371;52.272;9.746;2023-04-05T13:47:07;19.30;36.30
16517;DHT22;8371;52.272;9.746;2023-04-05T13:49:33;19.30;36.00
16517;DHT22;8371;52.272;9.746;2023-04-05T13:51:59;19.30;34.40
16517;DHT22;8371;52.272;9.746;2023-04-05T13:54:25;19.30;35.40
16517;DHT22;8371;52.272;9.746;2023-04-05T13:56:50;19.20;35.80
16517;DHT22;8371;52.272;9.746;2023-04-05T13:59:16;19.20;36.60
16517;DHT22;8371;52.272;9.746;2023-04-05T14:01:45;19.20;36.80
16517;DHT22;8371;52.272;9.746;2023-04-05T14:04:11;19.30;36.90
16517;DHT22;8371;52.272;9.746;2023-04-05T14:06:37;19.30;37.00
16517;DHT22;8371;52.272;9.746;2023-04-05T14:09:03;19.40;37.20
16517;DHT22;8371;52.272;9.746;2023-04-05T14:11:30;19.50;37.10
16517;DHT22;8371;52.272;9.746;2023-04-05T14:13:56;19.60;36.50
16517;DHT22;8371;52.272;9.746;2023-04-05T14:16:22;19.70;36.40
16517;DHT22;8371;52.272;9.746;2023-04-05T14:18:48;19.70;35.20
16517;DHT22;8371;52.272;9.746;2023-04-05T14:21:13;19.80;36.10
16517;DHT22;8371;52.272;9.746;2023-04-05T14:23:39;19.80;35.60
16517;DHT22;8371;52.272;9.746;2023-04-05T14:26:05;19.70;34.90
16517;DHT22;8371;52.272;9.746;2023-04-05T14:28:31;19.70;35.50
16517;DHT22;8371;52.272;9.746;2023-04-05T14:30:56;19.70;35.00
16517;DHT22;8371;52.272;9.746;2023-04-05T14:33:24;19.70;35.50
16517;DHT22;8371;52.272;9.746;2023-04-05T14:35:52;19.70;35.60
16517;DHT22;8371;52.272;9.746;2023-04-05T14:38:18;19.70;35.80
16517;DHT22;8371;52.272;9.746;2023-04-05T14:40:43;19.70;35.90
16517;DHT22;8371;52.272;9.746;2023-04-05T14:43:10;19.70;35.70
16517;DHT22;8371;52.272;9.746;2023-04-05T14:45:35;19.70;35.50
16517;DHT22;8371;52.272;9.746;2023-04-05T14:48:01;19.80;35.70
16517;DHT22;8371;52.272;9.746;2023-04-05T14:50:27;19.90;35.70
16517;DHT22;8371;52.272;9.746;2023-04-05T14:52:55;19.90;35.90
16517;DHT22;8371;52.272;9.746;2023-04-05T14:55:20;20.00;35.80
16517;DHT22;8371;52.272;9.746;2023-04-05T14:57:46;20.00;35.70
16517;DHT22;8371;52.272;9.746;2023-04-05T15:00:13;20.10;35.70
16517;DHT22;8371;52.272;9.746;2023-04-05T15:02:38;20.10;35.30
16517;DHT22;8371;52.272;9.746;2023-04-05T15:05:05;20.10;35.60
16517;DHT22;8371;52.272;9.746;2023-04-05T15:07:30;20.10;34.50
16517;DHT22;8371;52.272;9.746;2023-04-05T15:09:56;20.10;32.90
16517;DHT22;8371;52.272;9.746;2023-04-05T15:12:23;20.00;32.80
16517;DHT22;8371;52.272;9.746;2023-04-05T15:14:48;19.80;33.50
16517;DHT22;8371;52.272;9.746;2023-04-05T15:17:15;19.70;33.90
16517;DHT22;8371;52.272;9.746;2023-04-05T15:19:41;19.60;33.70
16517;DHT22;8371;52.272;9.746;2023-04-05T15:22:07;19.50;34.10
16517;DHT22;8371;52.272;9.746;2023-04-05T15:24:35;19.40;33.80
16517;DHT22;8371;52.272;9.746;2023-04-05T15:27:02;19.30;33.10
16517;DHT22;8371;52.272;9.746;2023-04-05T15:29:28;19.30;33.80
16517;DHT22;8371;52.272;9.746;2023-04-05T15:31:55;19.20;34.10
16517;DHT22;8371;52.272;9.746;2023-04-05T15:34:26;19.20;34.30
16517;DHT22;8371;52.272;9.746;2023-04-05T15:36:52;19.10;34.50
16517;DHT22;8371;52.272;9.746;2023-04-05T15:39:19;19.10;34.50
16517;DHT22;8371;52.272;9.746;2023-04-05T15:41:45;19.20;34.30
16517;DHT22;8371;52.272;9.746;2023-04-05T15:44:12;19.20;35.20
16517;DHT22;8371;52.272;9.746;2023-04-05T15:46:37;19.10;34.60
16517;DHT22;8371;52.272;9.746;2023-04-05T15:49:03;19.10;34.80
16517;DHT22;8371;52.272;9.746;2023-04-05T15:51:29;19.10;34.50
16517;DHT22;8371;52.272;9.746;2023-04-05T15:53:55;19.10;34.30
16517;DHT22;8371;52.272;9.746;2023-04-05T15:56:21;19.00;34.00
16517;DHT22;8371;52.272;9.746;2023-04-05T15:58:47;18.90;34.00
16517;DHT22;8371;52.272;9.746;2023-04-05T16:01:13;18.90;33.90
16517;DHT22;8371;52.272;9.746;2023-04-05T16:03:38;18.80;33.70
16517;DHT22;8371;52.272;9.746;2023-04-05T16:06:04;18.70;34.20
16517;DHT22;8371;52.272;9.746;2023-04-05T16:08:30;18.70;34.00
16517;DHT22;8371;52.272;9.746;2023-04-05T16:10:56;18.70;34.30
16517;DHT22;8371;52.272;9.746;2023-04-05T16:13:22;18.70;34.20
16517;DHT22;8371;52.272;9.746;2023-04-05T16:15:48;18.60;33.70
16517;DHT22;8371;52.272;9.746;2023-04-05T16:18:14;18.60;33.50
16517;DHT22;8371;52.272;9.746;2023-04-05T16:20:41;18.40;32.90